createdAt,value
2023-03-13T00:04:08.592Z,8.22
2023-03-13T00:09:07.783Z,8.13
2023-03-13T00:14:05.724Z,8.21
2023-03-13T00:19:02.071Z,8.12
2023-03-13T00:23:59.869Z,8.09
2023-03-13T00:28:56.738Z,8.07
2023-03-13T00:33:57.200Z,8.06
2023-03-13T00:38:54.809Z,8.03
2023-03-13T00:43:52.038Z,7.93
2023-03-13T00:48:49.366Z,8.00
2023-03-13T00:53:45.914Z,8.03
2023-03-13T00:58:44.476Z,8.01
2023-03-13T01:03:42.480Z,7.95
2023-03-13T01:08:38.962Z,8.02
2023-03-13T01:13:36.740Z,8.05
2023-03-13T01:18:37.364Z,8.06
2023-03-13T01:23:34.088Z,8.09
2023-03-13T01:28:30.492Z,8.13
2023-03-13T01:33:37.688Z,8.19
2023-03-13T01:38:36.363Z,8.24
2023-03-13T01:43:49.852Z,8.08
2023-03-13T01:49:02.998Z,8.16
2023-03-13T01:54:47.071Z,8.08
2023-03-13T02:00:03.087Z,8.01
2023-03-13T02:05:14.705Z,7.89
2023-03-13T02:10:14.781Z,7.78
2023-03-13T02:15:17.634Z,7.77
2023-03-13T02:20:15.978Z,7.73
2023-03-13T02:25:24.427Z,7.73
2023-03-13T02:30:21.099Z,7.71
2023-03-13T02:35:20.942Z,7.69
2023-03-13T02:40:24.036Z,7.77
2023-03-13T02:45:20.547Z,7.80
2023-03-13T02:50:17.637Z,7.90
2023-03-13T02:55:18.398Z,7.94
2023-03-13T03:00:17.189Z,7.97
2023-03-13T03:05:13.747Z,7.85
2023-03-13T03:10:10.684Z,7.77
2023-03-13T03:15:07.757Z,7.73
2023-03-13T03:20:08.548Z,7.74
2023-03-13T03:25:06.295Z,7.61
2023-03-13T03:30:04.104Z,7.58
2023-03-13T03:35:00.493Z,7.53
2023-03-13T03:39:56.886Z,7.54
2023-03-13T03:44:53.553Z,7.59
2023-03-13T03:49:49.883Z,7.61
2023-03-13T03:54:46.323Z,7.64
2023-03-13T03:59:42.767Z,7.63
2023-03-13T04:04:39.143Z,7.68
2023-03-13T04:09:35.501Z,7.69
2023-03-13T04:14:31.895Z,7.73
2023-03-13T04:19:28.312Z,7.72
2023-03-13T04:24:24.795Z,7.81
2023-03-13T04:29:21.225Z,7.91
2023-03-13T04:34:17.643Z,8.03
2023-03-13T04:39:14.012Z,8.11
2023-03-13T04:44:10.342Z,8.23
2023-03-13T04:49:08.822Z,8.34
2023-03-13T04:54:05.466Z,8.36
2023-03-13T04:59:01.900Z,8.47
2023-03-13T05:03:58.362Z,8.51
2023-03-13T05:08:55.094Z,8.58
2023-03-13T05:13:51.533Z,8.66
2023-03-13T05:18:48.098Z,8.70
2023-03-13T05:23:44.430Z,8.81
2023-03-13T05:28:40.825Z,8.86
2023-03-13T05:33:37.190Z,8.94
2023-03-13T05:38:33.630Z,9.13
2023-03-13T05:43:29.978Z,9.40
2023-03-13T05:48:26.329Z,9.61
2023-03-13T05:53:22.691Z,9.74
2023-03-13T05:58:19.032Z,9.85
2023-03-13T06:03:15.412Z,9.91
2023-03-13T06:08:11.788Z,9.92
2023-03-13T06:13:19.432Z,9.91
2023-03-13T06:18:16.507Z,9.92
2023-03-13T06:23:12.910Z,10.02
2023-03-13T06:28:09.331Z,10.07
2023-03-13T06:33:05.829Z,10.04
2023-03-13T06:38:02.221Z,10.08
2023-03-13T06:42:58.963Z,10.09
2023-03-13T06:47:55.459Z,10.12
2023-03-13T06:52:53.010Z,10.14
2023-03-13T06:57:51.084Z,10.23
2023-03-13T07:02:47.504Z,10.33
2023-03-13T07:07:44.254Z,10.35
2023-03-13T07:12:40.865Z,10.41
2023-03-13T07:17:37.635Z,10.43
2023-03-13T07:22:34.024Z,10.41
2023-03-13T07:27:30.960Z,10.40
2023-03-13T07:32:32.027Z,10.42
2023-03-13T07:37:28.497Z,10.52
2023-03-13T07:42:24.836Z,10.57
2023-03-13T07:47:21.276Z,10.69
2023-03-13T07:52:18.000Z,10.76
2023-03-13T07:57:14.326Z,10.83
2023-03-13T08:02:14.150Z,10.94
2023-03-13T08:07:11.623Z,10.95
2023-03-13T08:12:08.951Z,11.11
2023-03-13T08:17:05.554Z,11.20
2023-03-13T08:22:02.679Z,11.32
2023-03-13T08:26:58.995Z,11.38
2023-03-13T08:31:55.701Z,11.49
2023-03-13T08:36:53.082Z,11.61
2023-03-13T08:41:49.967Z,11.65
2023-03-13T08:46:48.029Z,11.71
2023-03-13T08:51:44.745Z,11.91
2023-03-13T08:56:43.367Z,11.87
2023-03-13T09:01:39.740Z,11.95
2023-03-13T09:06:38.050Z,11.99
2023-03-13T09:11:35.913Z,12.07
2023-03-13T09:16:34.204Z,12.24
2023-03-13T09:21:32.312Z,12.30
2023-03-13T09:26:29.256Z,12.33
2023-03-13T09:31:31.168Z,12.29
2023-03-13T09:36:28.395Z,12.27
2023-03-13T09:41:48.338Z,12.21
2023-03-13T09:46:53.862Z,12.25
2023-03-13T09:51:56.485Z,12.24
2023-03-13T09:56:55.629Z,12.40
2023-03-13T10:01:55.271Z,12.76
2023-03-13T10:06:53.140Z,12.98
2023-03-13T10:12:19.742Z,13.16
2023-03-13T10:17:27.678Z,13.27
2023-03-13T10:22:29.982Z,13.48
2023-03-13T10:27:26.674Z,13.59
2023-03-13T10:32:23.042Z,13.46
2023-03-13T10:37:28.766Z,13.47
2023-03-13T10:42:28.812Z,13.58
2023-03-13T10:47:25.389Z,13.88
2023-03-13T10:52:35.166Z,14.03
2023-03-13T10:57:36.183Z,14.09
2023-03-13T11:02:39.168Z,14.14
2023-03-13T11:07:38.159Z,14.17
2023-03-13T11:12:36.013Z,14.35
2023-03-13T11:17:38.721Z,14.29
2023-03-13T11:22:47.650Z,14.42
2023-03-13T11:28:17.032Z,14.49
2023-03-13T11:33:39.348Z,14.45
2023-03-13T11:38:39.799Z,14.36
2023-03-13T11:44:00.176Z,14.56
2023-03-13T11:49:07.189Z,14.43
2023-03-13T11:54:31.719Z,14.50
2023-03-13T11:59:46.050Z,14.54
2023-03-13T12:05:00.805Z,15.02
2023-03-13T12:10:10.148Z,15.16
2023-03-13T12:15:26.625Z,15.04
2023-03-13T12:20:50.091Z,15.06
2023-03-13T12:25:55.200Z,15.20
2023-03-13T12:31:04.166Z,15.10
2023-03-13T12:36:07.914Z,15.22
2023-03-13T12:41:26.813Z,15.52
2023-03-13T12:46:41.933Z,15.65
2023-03-13T12:51:44.364Z,15.77
2023-03-13T12:56:46.521Z,16.02
2023-03-13T13:01:47.367Z,15.95
2023-03-13T13:07:00.480Z,15.92
2023-03-13T13:12:00.492Z,16.29
2023-03-13T13:17:04.197Z,16.30
2023-03-13T13:22:37.696Z,16.35
2023-03-13T13:27:37.090Z,15.89
2023-03-13T13:32:37.159Z,15.90
2023-03-13T13:37:34.425Z,16.04
2023-03-13T13:42:30.771Z,15.96
2023-03-13T13:47:30.917Z,16.02
2023-03-13T13:52:31.689Z,16.37
2023-03-13T13:57:35.599Z,16.41
2023-03-13T14:02:34.645Z,16.27
2023-03-13T14:07:37.121Z,16.52
2023-03-13T14:12:36.472Z,16.17
2023-03-13T14:17:39.956Z,16.19
2023-03-13T14:22:47.393Z,15.98
2023-03-13T14:27:45.268Z,15.89
2023-03-13T14:32:41.893Z,15.79
2023-03-13T14:37:43.298Z,15.79
2023-03-13T14:42:47.196Z,15.80
2023-03-13T14:47:43.990Z,15.70
2023-03-13T14:52:49.779Z,15.54
2023-03-13T14:58:00.049Z,15.54
2023-03-13T15:03:16.663Z,15.49
2023-03-13T15:08:19.278Z,15.61
2023-03-13T15:13:29.920Z,15.75
2023-03-13T15:18:32.046Z,15.67
2023-03-13T15:23:30.071Z,15.66
2023-03-13T15:28:26.327Z,15.50
2023-03-13T15:33:26.082Z,15.43
2023-03-13T15:38:27.530Z,15.38
2023-03-13T15:43:24.172Z,15.35
2023-03-13T15:48:26.045Z,15.24
2023-03-13T15:53:35.357Z,15.19
2023-03-13T15:58:31.790Z,15.11
2023-03-13T16:03:28.875Z,15.00
2023-03-13T16:08:36.140Z,14.95
2023-03-13T16:13:33.236Z,14.94
2023-03-13T16:18:29.617Z,14.96
2023-03-13T16:23:25.955Z,14.95
2023-03-13T16:28:22.287Z,15.04
2023-03-13T16:33:18.666Z,15.07
2023-03-13T16:38:15.071Z,15.22
2023-03-13T16:43:12.732Z,15.71
2023-03-13T16:48:17.284Z,16.50
2023-03-13T16:53:13.694Z,18.14
2023-03-13T16:58:12.860Z,15.59
2023-03-13T17:03:09.285Z,14.58
2023-03-13T17:08:06.069Z,14.26
2023-03-13T17:13:02.779Z,14.04
2023-03-13T17:17:59.428Z,13.91
2023-03-13T17:22:56.718Z,13.83
2023-03-13T17:27:53.402Z,13.74
2023-03-13T17:32:50.296Z,13.66
2023-03-13T17:37:48.217Z,13.42
2023-03-13T17:42:45.178Z,13.20
2023-03-13T17:47:42.387Z,13.16
2023-03-13T17:52:38.704Z,13.13
2023-03-13T17:57:35.147Z,12.96
2023-03-13T18:02:31.488Z,12.88
2023-03-13T18:07:29.582Z,12.73
2023-03-13T18:12:25.981Z,12.85
2023-03-13T18:17:24.300Z,13.00
2023-03-13T18:22:27.326Z,13.00
2023-03-13T18:27:23.683Z,13.08
2023-03-13T18:32:20.268Z,12.91
2023-03-13T18:37:21.657Z,12.82
2023-03-13T18:42:18.526Z,12.75
2023-03-13T18:47:20.950Z,12.48
2023-03-13T18:52:17.420Z,12.42
2023-03-13T18:57:16.325Z,12.36
2023-03-13T19:02:18.000Z,12.27
2023-03-13T19:07:27.353Z,11.91
2023-03-13T19:12:23.710Z,11.90
2023-03-13T19:17:28.034Z,11.85
2023-03-13T19:22:25.746Z,11.58
2023-03-13T19:27:22.049Z,11.51
2023-03-13T19:32:19.333Z,11.42
2023-03-13T19:37:16.398Z,11.29
2023-03-13T19:42:12.862Z,11.26
2023-03-13T19:47:14.662Z,11.28
2023-03-13T19:52:11.010Z,11.28
2023-03-13T19:57:10.755Z,11.26
2023-03-13T20:02:09.170Z,11.27
2023-03-13T20:07:05.589Z,11.14
2023-03-13T20:12:01.898Z,11.07
2023-03-13T20:16:58.239Z,10.91
2023-03-13T20:21:54.583Z,10.88
2023-03-13T20:26:51.139Z,10.87
2023-03-13T20:31:47.540Z,10.89
2023-03-13T20:36:43.888Z,10.73
2023-03-13T20:41:40.197Z,10.66
2023-03-13T20:46:36.523Z,10.60
2023-03-13T20:51:34.324Z,10.55
2023-03-13T20:56:30.665Z,10.50
2023-03-13T21:01:27.762Z,10.47
2023-03-13T21:06:24.448Z,10.34
2023-03-13T21:11:22.896Z,10.22
2023-03-13T21:16:19.894Z,10.12
2023-03-13T21:21:18.860Z,10.00
2023-03-13T21:26:15.745Z,9.81
2023-03-13T21:31:18.783Z,9.75
2023-03-13T21:36:20.522Z,9.67
2023-03-13T21:41:19.694Z,9.66
2023-03-13T21:46:17.812Z,9.61
2023-03-13T21:51:14.653Z,9.48
2023-03-13T21:56:15.254Z,9.48
2023-03-13T22:01:12.261Z,9.34
2023-03-13T22:06:17.283Z,9.20
2023-03-13T22:11:14.089Z,9.24
2023-03-13T22:16:11.507Z,9.29
2023-03-13T22:21:07.957Z,9.15
2023-03-13T22:26:04.981Z,9.02
2023-03-13T22:31:01.811Z,8.98
2023-03-13T22:35:58.420Z,8.89
2023-03-13T22:41:00.459Z,9.12
2023-03-13T22:45:57.529Z,9.24
2023-03-13T22:51:11.663Z,9.25
2023-03-13T22:56:12.347Z,9.25
2023-03-13T23:01:12.439Z,9.31
2023-03-13T23:06:13.827Z,9.40
2023-03-13T23:11:10.924Z,9.51
2023-03-13T23:16:10.233Z,9.72
2023-03-13T23:21:09.475Z,9.95
2023-03-13T23:26:10.404Z,10.10
2023-03-13T23:31:12.014Z,10.23
2023-03-13T23:36:11.578Z,10.28
2023-03-13T23:41:09.557Z,10.28
2023-03-13T23:46:14.166Z,10.23
2023-03-13T23:51:10.588Z,10.27
2023-03-13T23:56:07.592Z,10.34
